Azure — ZCEE2 — position and weather

sailwx.info

Track history (hours):
 
Tides and Currents Weather Stations Pressure Air Temp Water Temp Dewpoint Dewpoint Depression Visibility Wind Speed Wind Dir Waves Ship Positions

Azure

Last reported at 2016-Jul-24 10:33 UTC. Time now 2016-Jul-24 10:46 UTC.
Position N 40°45' W 010°08'.

Length 289 m; draft 8.7 m.

Type: Passenger vessel. MMSI: 310610000.

Date/timePositionNaut miles runAvg speedWind from/ knotsBaromVisibWave heightAir tempDewpointWater temp
2016-Jul-24 10:33N 40°45' W 010°08'2717.1
2016-Jul-24 09:00N 41°12' W 010°06'14518.1 020 / 241021.910.8 1.520.417.118.0
2016-Jul-24 01:00N 43°36' W 009°48'15018.7 020 / 161024.0 5.4 19.017.420.0
2016-Jul-23 17:00N 45°42' W 007°54'13720.9 320 / 151024.110.8 19.017.420.0
2016-Jul-23 10:27N 47°40' W 006°13'1920.0
2016-Jul-23 09:31N 47°56' W 005°58'2119.7
2016-Jul-23 08:28N 48°14' W 005°43'1718.5
2016-Jul-23 07:34N 48°28' W 005°28'1616.4
2016-Jul-23 06:34N 48°40' W 005°12'916.0
2016-Jul-23 06:00N 48°36' W 005°00'3121.4 290 / 101021.710.8 20.017.614.0
2016-Jul-23 04:33N 49°02' W 004°35'2118.4
2016-Jul-23 03:25N 49°15' W 004°10'1920.0
2016-Jul-23 02:29N 49°28' W 003°49'1530.0
2016-Jul-23 02:00N 49°36' W 003°30'511.8 290 / 101021.710.8 0.517.515.818.0
2016-Jul-23 01:32N 49°41' W 003°27'1919.9
2016-Jul-23 00:34N 49°54' W 003°05'1817.8
2016-Jul-22 23:32N 50°03' W 002°40'1616.4
2016-Jul-22 22:34N 50°08' W 002°16'1615.3
2016-Jul-22 21:32N 50°15' W 001°54'1515.2
2016-Jul-22 20:33N 50°21' W 001°33'1515.3
2016-Jul-22 19:34N 50°29' W 001°13'1515.3
2016-Jul-22 18:34N 50°41' W 000°58'1514.6
2016-Jul-22 17:33N 50°47' W 001°19'8 8.2
2016-Jul-22 16:33N 50°54' W 001°26'0 0.0
2016-Jul-22 15:31N 50°54' W 001°26'0 0.0
2016-Jul-22 14:31N 50°54' W 001°26'0 0.0
2016-Jul-22 13:33N 50°54' W 001°26'0 0.0
2016-Jul-22 12:33N 50°54' W 001°26'0 0.0
2016-Jul-22 11:31N 50°54' W 001°26'0 0.0
2016-Jul-22 10:32N 50°54' W 001°26'0 0.0
2016-Jul-22 09:33N 50°54' W 001°26'0 0.0
2016-Jul-22 08:33N 50°54' W 001°26'0 0.0
2016-Jul-22 07:32N 50°54' W 001°26'0 0.0
2016-Jul-22 05:33N 50°54' W 001°26'3 3.3
2016-Jul-22 04:33N 50°52' W 001°22'9 8.9
2016-Jul-22 03:33N 50°46' W 001°11'1211.6
2016-Jul-22 02:33N 50°38' W 000°58'6 6.3
2016-Jul-22 01:33N 50°32' W 001°03'8 8.2
2016-Jul-22 00:33N 50°28' W 001°14'1111.0
2016-Jul-21 23:33N 50°23' W 001°29'1212.4
2016-Jul-21 22:33N 50°17' W 001°46'1312.9
2016-Jul-21 21:34N 50°05' W 001°55'1515.0
2016-Jul-21 20:34N 49°58' W 002°15'1515.5
2016-Jul-21 19:34N 49°54' W 002°38'1514.6
2016-Jul-21 18:34N 49°48' W 002°59'1413.8
2016-Jul-21 17:33N 49°40' W 003°16'1413.5
2016-Jul-21 16:31N 49°31' W 003°34'1613.2
2016-Jul-21 15:17N 49°21' W 003°53'310.9
2016-Jul-21 15:00N 49°18' W 003°54'3514.1 190 / 71018.610.8 0.518.014.618.0
2016-Jul-21 12:33N 48°58' W 004°37'1313.4
2016-Jul-21 11:33N 48°50' W 004°54'1312.7
2016-Jul-21 10:33N 48°42' W 005°08'1312.9
2016-Jul-21 09:33N 48°33' W 005°21'2813.0
2016-Jul-21 07:25N 48°09' W 005°43'4314.6
2016-Jul-21 04:28N 47°31' W 006°15'2718.5
2016-Jul-21 03:00N 47°06' W 006°30'20316.9 120 / 101018.110.8 0.517.515.818.0
2016-Jul-20 15:00N 44°12' W 009°00'20617.2 300 / 201019.110.8 1.020.518.1
2016-Jul-20 03:00N 40°48' W 009°42'9115.6 330 / 121016.110.8 0.518.517.719.0
2016-Jul-19 21:11N 39°17' W 009°43'1016.8
2016-Jul-19 20:34N 39°07' W 009°43'1716.5
2016-Jul-19 19:34N 38°50' W 009°43'1515.0
2016-Jul-19 18:33N 38°37' W 009°34'1514.6
2016-Jul-19 17:33N 38°41' W 009°16'7 6.8
2016-Jul-19 16:31N 38°43' W 009°08'0 0.0
2016-Jul-19 15:33N 38°43' W 009°08'0 0.0
2016-Jul-19 14:33N 38°43' W 009°08'0 0.0
2016-Jul-19 13:32N 38°43' W 009°08'0 0.0
2016-Jul-19 12:32N 38°43' W 009°08'0 0.0
2016-Jul-19 11:32N 38°43' W 009°08'0 0.0
2016-Jul-19 10:31N 38°43' W 009°08'0 0.0
2016-Jul-19 09:33N 38°43' W 009°08'0 0.0
2016-Jul-19 08:32N 38°43' W 009°08'1 1.0
2016-Jul-19 07:33N 38°42' W 009°08'3712.3
2016-Jul-19 04:33N 38°14' W 009°40'1615.5
2016-Jul-19 03:33N 37°59' W 009°45'1731.0
2016-Jul-19 03:00N 37°42' W 009°48'4 8.5 010 / 101014.7 0.519.017.4
2016-Jul-19 02:33N 37°44' W 009°52'1616.0
2016-Jul-19 01:33N 37°29' W 009°58'1616.4
2016-Jul-19 00:34N 37°14' W 010°04'1616.2
2016-Jul-18 23:33N 36°58' W 010°11'1616.0
2016-Jul-18 22:33N 36°43' W 010°17'1615.8
2016-Jul-18 21:31N 36°27' W 010°23'1516.0
2016-Jul-18 20:33N 36°13' W 010°29'2216.3
2016-Jul-18 19:11N 35°52' W 010°38'7217.2
2016-Jul-18 15:00N 34°42' W 011°00'2114.2 010 / 201013.710.8 1.521.018.622.0
2016-Jul-18 13:32N 34°24' W 011°12'2116.3
2016-Jul-18 12:14N 34°04' W 011°20'1116.4
2016-Jul-18 11:33N 33°53' W 011°24'4016.5
2016-Jul-18 09:09N 33°15' W 011°39'7616.5
2016-Jul-18 04:33N 32°04' W 012°07'1716.4
2016-Jul-18 03:33N 31°48' W 012°13'1716.5
2016-Jul-18 02:32N 31°32' W 012°19'2 3.9
2016-Jul-18 02:00N 31°30' W 012°18'10118.0 010 / 151014.710.8 2.021.020.2
2016-Jul-17 20:21N 29°54' W 012°56'1316.6
2016-Jul-17 19:32N 29°41' W 013°01'1616.5
2016-Jul-17 18:34N 29°26' W 013°07'36 8.9
2016-Jul-17 14:34N 28°58' W 013°32'0 0.0
2016-Jul-17 08:34N 28°58' W 013°32'0 0.0
2016-Jul-17 07:31N 28°58' W 013°32'0 0.3
2016-Jul-17 06:33N 28°58' W 013°32'29 8.2
2016-Jul-17 03:00N 28°42' W 014°00'17 8.4 350 / 221014.610.8 1.021.517.5
2016-Jul-17 01:00N 28°36' W 014°18'58 7.6 010 / 201015.810.8 1.020.518.122.0
2016-Jul-16 17:23N 28°06' W 015°14'7 8.7
2016-Jul-16 16:33N 28°07' W 015°23'3 2.9
2016-Jul-16 15:30N 28°08' W 015°25'0 0.0
2016-Jul-16 14:33N 28°08' W 015°25'0 0.0
2016-Jul-16 13:33N 28°08' W 015°25'0 0.0
2016-Jul-16 12:32N 28°08' W 015°25'0 0.0
2016-Jul-16 11:32N 28°08' W 015°25'0 0.0
2016-Jul-16 10:29N 28°08' W 015°25'23 3.1
2016-Jul-16 03:12N 28°31' W 015°28'841.2
2016-Jul-16 03:00N 28°36' W 015°36'0 0.7 350 / 171015.610.8 0.521.518.322.0
2016-Jul-16 02:31N 28°36' W 015°36'1512.7
2016-Jul-16 01:21N 28°43' W 015°51'1012.6
2016-Jul-16 00:32N 28°50' W 016°00'1212.2
2016-Jul-15 23:34N 28°51' W 016°14'2013.2
2016-Jul-15 22:04N 28°48' W 016°36'713.7
2016-Jul-15 21:33N 28°47' W 016°44'1513.3
2016-Jul-15 20:26N 28°45' W 017°01'1112.5
2016-Jul-15 19:33N 28°44' W 017°13'1312.5
2016-Jul-15 18:31N 28°42' W 017°28'66 4.0
2016-Jul-15 02:00N 29°48' W 017°24'4817.4 040 / 201017.210.8 1.521.017.8
2016-Jul-14 23:15N 30°36' W 017°19'2917.5
2016-Jul-14 21:33N 31°05' W 017°13'2417.5
2016-Jul-14 20:12N 31°28' W 017°08'1117.6
2016-Jul-14 19:33N 31°39' W 017°06'1717.2
2016-Jul-14 18:33N 31°56' W 017°03'1917.9
2016-Jul-14 17:29N 32°15' W 016°59'  
Track history (hours):
 
Tides and Currents Weather Stations Pressure Air Temp Water Temp Dewpoint Dewpoint Depression Visibility Wind Speed Wind Dir Waves Ship Positions

Azure

Last reported at 2016-Jul-24 10:33 UTC. Time now 2016-Jul-24 10:46 UTC.
Position N 40°45' W 010°08'.

Length 289 m; draft 8.7 m.

Type: Passenger vessel. MMSI: 310610000.

Date/timePositionNaut miles runAvg speedWind from/ knotsBaromVisibWave heightAir tempDewpointWater temp
2016-Jul-24 10:33N 40°45' W 010°08'2717.1
2016-Jul-24 09:00N 41°12' W 010°06'14518.1 020 / 241021.910.8 1.520.417.118.0
2016-Jul-24 01:00N 43°36' W 009°48'15018.7 020 / 161024.0 5.4 19.017.420.0
2016-Jul-23 17:00N 45°42' W 007°54'13720.9 320 / 151024.110.8 19.017.420.0
2016-Jul-23 10:27N 47°40' W 006°13'1920.0
2016-Jul-23 09:31N 47°56' W 005°58'2119.7
2016-Jul-23 08:28N 48°14' W 005°43'1718.5
2016-Jul-23 07:34N 48°28' W 005°28'1616.4
2016-Jul-23 06:34N 48°40' W 005°12'916.0
2016-Jul-23 06:00N 48°36' W 005°00'3121.4 290 / 101021.710.8 20.017.614.0
2016-Jul-23 04:33N 49°02' W 004°35'2118.4
2016-Jul-23 03:25N 49°15' W 004°10'1920.0
2016-Jul-23 02:29N 49°28' W 003°49'1530.0
2016-Jul-23 02:00N 49°36' W 003°30'511.8 290 / 101021.710.8 0.517.515.818.0
2016-Jul-23 01:32N 49°41' W 003°27'1919.9
2016-Jul-23 00:34N 49°54' W 003°05'1817.8
2016-Jul-22 23:32N 50°03' W 002°40'1616.4
2016-Jul-22 22:34N 50°08' W 002°16'1615.3
2016-Jul-22 21:32N 50°15' W 001°54'1515.2
2016-Jul-22 20:33N 50°21' W 001°33'1515.3
2016-Jul-22 19:34N 50°29' W 001°13'1515.3
2016-Jul-22 18:34N 50°41' W 000°58'1514.6
2016-Jul-22 17:33N 50°47' W 001°19'8 8.2
2016-Jul-22 16:33N 50°54' W 001°26'0 0.0
2016-Jul-22 15:31N 50°54' W 001°26'0 0.0
2016-Jul-22 14:31N 50°54' W 001°26'0 0.0
2016-Jul-22 13:33N 50°54' W 001°26'0 0.0
2016-Jul-22 12:33N 50°54' W 001°26'0 0.0
2016-Jul-22 11:31N 50°54' W 001°26'0 0.0
2016-Jul-22 10:32N 50°54' W 001°26'0 0.0
2016-Jul-22 09:33N 50°54' W 001°26'0 0.0
2016-Jul-22 08:33N 50°54' W 001°26'0 0.0
2016-Jul-22 07:32N 50°54' W 001°26'0 0.0
2016-Jul-22 05:33N 50°54' W 001°26'3 3.3
2016-Jul-22 04:33N 50°52' W 001°22'9 8.9
2016-Jul-22 03:33N 50°46' W 001°11'1211.6
2016-Jul-22 02:33N 50°38' W 000°58'6 6.3
2016-Jul-22 01:33N 50°32' W 001°03'8 8.2
2016-Jul-22 00:33N 50°28' W 001°14'1111.0
2016-Jul-21 23:33N 50°23' W 001°29'1212.4
2016-Jul-21 22:33N 50°17' W 001°46'1312.9
2016-Jul-21 21:34N 50°05' W 001°55'1515.0
2016-Jul-21 20:34N 49°58' W 002°15'1515.5
2016-Jul-21 19:34N 49°54' W 002°38'1514.6
2016-Jul-21 18:34N 49°48' W 002°59'1413.8
2016-Jul-21 17:33N 49°40' W 003°16'1413.5
2016-Jul-21 16:31N 49°31' W 003°34'1613.2
2016-Jul-21 15:17N 49°21' W 003°53'310.9
2016-Jul-21 15:00N 49°18' W 003°54'3514.1 190 / 71018.610.8 0.518.014.618.0
2016-Jul-21 12:33N 48°58' W 004°37'1313.4
2016-Jul-21 11:33N 48°50' W 004°54'1312.7
2016-Jul-21 10:33N 48°42' W 005°08'1312.9
2016-Jul-21 09:33N 48°33' W 005°21'2813.0
2016-Jul-21 07:25N 48°09' W 005°43'4314.6
2016-Jul-21 04:28N 47°31' W 006°15'2718.5
2016-Jul-21 03:00N 47°06' W 006°30'20316.9 120 / 101018.110.8 0.517.515.818.0
2016-Jul-20 15:00N 44°12' W 009°00'20617.2 300 / 201019.110.8 1.020.518.1
2016-Jul-20 03:00N 40°48' W 009°42'9115.6 330 / 121016.110.8 0.518.517.719.0
2016-Jul-19 21:11N 39°17' W 009°43'1016.8
2016-Jul-19 20:34N 39°07' W 009°43'1716.5
2016-Jul-19 19:34N 38°50' W 009°43'1515.0
2016-Jul-19 18:33N 38°37' W 009°34'1514.6
2016-Jul-19 17:33N 38°41' W 009°16'7 6.8
2016-Jul-19 16:31N 38°43' W 009°08'0 0.0
2016-Jul-19 15:33N 38°43' W 009°08'0 0.0
2016-Jul-19 14:33N 38°43' W 009°08'0 0.0
2016-Jul-19 13:32N 38°43' W 009°08'0 0.0
2016-Jul-19 12:32N 38°43' W 009°08'0 0.0
2016-Jul-19 11:32N 38°43' W 009°08'0 0.0
2016-Jul-19 10:31N 38°43' W 009°08'0 0.0
2016-Jul-19 09:33N 38°43' W 009°08'0 0.0
2016-Jul-19 08:32N 38°43' W 009°08'1 1.0
2016-Jul-19 07:33N 38°42' W 009°08'3712.3
2016-Jul-19 04:33N 38°14' W 009°40'1615.5
2016-Jul-19 03:33N 37°59' W 009°45'1731.0
2016-Jul-19 03:00N 37°42' W 009°48'4 8.5 010 / 101014.7 0.519.017.4
2016-Jul-19 02:33N 37°44' W 009°52'1616.0
2016-Jul-19 01:33N 37°29' W 009°58'1616.4
2016-Jul-19 00:34N 37°14' W 010°04'1616.2
2016-Jul-18 23:33N 36°58' W 010°11'1616.0
2016-Jul-18 22:33N 36°43' W 010°17'1615.8
2016-Jul-18 21:31N 36°27' W 010°23'1516.0
2016-Jul-18 20:33N 36°13' W 010°29'2216.3
2016-Jul-18 19:11N 35°52' W 010°38'7217.2
2016-Jul-18 15:00N 34°42' W 011°00'2114.2 010 / 201013.710.8 1.521.018.622.0
2016-Jul-18 13:32N 34°24' W 011°12'2116.3
2016-Jul-18 12:14N 34°04' W 011°20'1116.4
2016-Jul-18 11:33N 33°53' W 011°24'4016.5
2016-Jul-18 09:09N 33°15' W 011°39'7616.5
2016-Jul-18 04:33N 32°04' W 012°07'1716.4
2016-Jul-18 03:33N 31°48' W 012°13'1716.5
2016-Jul-18 02:32N 31°32' W 012°19'2 3.9
2016-Jul-18 02:00N 31°30' W 012°18'10118.0 010 / 151014.710.8 2.021.020.2
2016-Jul-17 20:21N 29°54' W 012°56'1316.6
2016-Jul-17 19:32N 29°41' W 013°01'1616.5
2016-Jul-17 18:34N 29°26' W 013°07'36 8.9
2016-Jul-17 14:34N 28°58' W 013°32'0 0.0
2016-Jul-17 08:34N 28°58' W 013°32'0 0.0
2016-Jul-17 07:31N 28°58' W 013°32'0 0.3
2016-Jul-17 06:33N 28°58' W 013°32'29 8.2
2016-Jul-17 03:00N 28°42' W 014°00'17 8.4 350 / 221014.610.8 1.021.517.5
2016-Jul-17 01:00N 28°36' W 014°18'58 7.6 010 / 201015.810.8 1.020.518.122.0
2016-Jul-16 17:23N 28°06' W 015°14'7 8.7
2016-Jul-16 16:33N 28°07' W 015°23'3 2.9
2016-Jul-16 15:30N 28°08' W 015°25'0 0.0
2016-Jul-16 14:33N 28°08' W 015°25'0 0.0
2016-Jul-16 13:33N 28°08' W 015°25'0 0.0
2016-Jul-16 12:32N 28°08' W 015°25'0 0.0
2016-Jul-16 11:32N 28°08' W 015°25'0 0.0
2016-Jul-16 10:29N 28°08' W 015°25'23 3.1
2016-Jul-16 03:12N 28°31' W 015°28'841.2
2016-Jul-16 03:00N 28°36' W 015°36'0 0.7 350 / 171015.610.8 0.521.518.322.0
2016-Jul-16 02:31N 28°36' W 015°36'1512.7
2016-Jul-16 01:21N 28°43' W 015°51'1012.6
2016-Jul-16 00:32N 28°50' W 016°00'1212.2
2016-Jul-15 23:34N 28°51' W 016°14'2013.2
2016-Jul-15 22:04N 28°48' W 016°36'713.7
2016-Jul-15 21:33N 28°47' W 016°44'1513.3
2016-Jul-15 20:26N 28°45' W 017°01'1112.5
2016-Jul-15 19:33N 28°44' W 017°13'1312.5
2016-Jul-15 18:31N 28°42' W 017°28'66 4.0
2016-Jul-15 02:00N 29°48' W 017°24'4817.4 040 / 201017.210.8 1.521.017.8
2016-Jul-14 23:15N 30°36' W 017°19'2917.5
2016-Jul-14 21:33N 31°05' W 017°13'2417.5
2016-Jul-14 20:12N 31°28' W 017°08'1117.6
2016-Jul-14 19:33N 31°39' W 017°06'1717.2
2016-Jul-14 18:33N 31°56' W 017°03'1917.9
2016-Jul-14 17:29N 32°15' W 016°59'  

Dump ship's entire track history